Time;durP1;ratioP1;P1;durP2;ratioP2;P2;SDS_P1;SDS_P2;PMS_P1;PMS_P2;Temp;Humidity;BMP_temperature;BMP_pressure;BME280_temperature;BME280_humidity;BME280_pressure;Samples;Min_cycle;Max_cycle;Signal;HPM_P1;HPM_P2
2020/12/26 00:01:11;;;;;;;9.33;4.07;;;4.40;78.00;;;;;;4867086;28;92427;-75
2020/12/26 00:03:37;;;;;;;8.13;4.33;;;4.30;77.80;;;;;;4866556;28;91971;-74
2020/12/26 00:06:03;;;;;;;8.63;4.30;;;4.30;77.90;;;;;;4884185;28;92895;-74
2020/12/26 00:08:29;;;;;;;7.73;4.00;;;4.30;77.90;;;;;;4884181;28;92830;-74
2020/12/26 00:10:55;;;;;;;9.27;4.70;;;4.40;77.80;;;;;;4868071;28;91872;-74
2020/12/26 00:13:21;;;;;;;7.83;4.53;;;4.40;78.00;;;;;;4887638;28;92243;-75
2020/12/26 00:15:47;;;;;;;6.47;3.77;;;4.40;77.60;;;;;;4869759;28;94274;-76
2020/12/26 00:18:13;;;;;;;9.80;4.70;;;4.40;77.70;;;;;;4882025;28;96433;-75
2020/12/26 00:20:39;;;;;;;8.80;4.10;;;4.40;77.60;;;;;;4869056;28;92140;-75
2020/12/26 00:23:04;;;;;;;10.83;4.47;;;4.30;77.60;;;;;;4850648;28;92182;-75
2020/12/26 00:25:30;;;;;;;5.63;3.33;;;4.40;77.70;;;;;;4897463;28;93171;-74
2020/12/26 00:27:56;;;;;;;7.20;3.93;;;4.40;77.40;;;;;;4865902;28;94506;-74
2020/12/26 00:30:22;;;;;;;6.87;3.60;;;4.40;77.80;;;;;;4883733;28;91895;-74
2020/12/26 00:32:48;;;;;;;8.67;4.03;;;4.30;77.70;;;;;;4864923;28;91582;-74
2020/12/26 00:35:13;;;;;;;8.53;4.10;;;4.40;77.90;;;;;;4865785;28;96712;-75
2020/12/26 00:37:39;;;;;;;7.73;3.83;;;4.40;77.80;;;;;;4849269;28;94334;-74
2020/12/26 00:40:05;;;;;;;7.20;3.43;;;4.40;77.50;;;;;;4865819;28;93345;-74
2020/12/26 00:42:31;;;;;;;6.63;3.70;;;4.30;77.60;;;;;;4865683;28;92416;-74
2020/12/26 00:44:57;;;;;;;6.93;3.67;;;4.40;77.70;;;;;;4865394;28;94052;-74
2020/12/26 00:47:22;;;;;;;6.57;3.70;;;4.30;77.50;;;;;;4865614;28;92828;-74
2020/12/26 00:49:51;;;;;;;8.93;3.60;;;4.30;77.70;;;;;;4880133;28;92098;-75
2020/12/26 00:52:17;;;;;;;5.50;3.23;;;4.30;77.80;;;;;;4865946;28;92133;-75
2020/12/26 00:54:43;;;;;;;6.23;3.47;;;4.30;77.80;;;;;;4881822;28;93040;-74
2020/12/26 00:57:09;;;;;;;5.63;3.23;;;4.30;77.60;;;;;;4865928;28;95846;-75
2020/12/26 00:59:35;;;;;;;5.73;3.20;;;4.30;77.70;;;;;;4864485;28;91856;-74
2020/12/26 01:02:02;;;;;;;5.53;3.30;;;4.20;77.80;;;;;;4897395;28;92209;-75
2020/12/26 01:04:36;;;;;;;6.70;3.77;;;4.30;77.70;;;;;;4864087;28;97580;-74
2020/12/26 01:07:02;;;;;;;5.30;3.20;;;4.30;77.70;;;;;;4882224;28;94234;-75
2020/12/26 01:09:28;;;;;;;6.20;3.40;;;4.30;77.70;;;;;;4897456;28;91841;-75
2020/12/26 01:11:54;;;;;;;7.23;3.33;;;4.30;77.80;;;;;;4864741;28;92435;-75
2020/12/26 01:14:19;;;;;;;8.20;3.03;;;4.30;77.50;;;;;;4865588;28;93190;-75
2020/12/26 01:16:50;;;;;;;8.77;3.10;;;4.30;77.60;;;;;;4864680;28;92452;-74
2020/12/26 01:19:19;;;;;;;6.03;3.03;;;4.30;77.70;;;;;;4865930;28;91865;-75
2020/12/26 01:21:52;;;;;;;4.43;2.60;;;4.30;77.90;;;;;;4865018;28;91479;-74
2020/12/26 01:24:22;;;;;;;4.83;2.60;;;4.30;78.20;;;;;;4865292;28;96108;-75
2020/12/26 01:26:51;;;;;;;7.47;2.77;;;4.30;78.20;;;;;;4864524;28;95914;-74
2020/12/26 01:29:17;;;;;;;5.10;2.20;;;4.30;78.00;;;;;;4864913;28;92793;-75
2020/12/26 01:31:49;;;;;;;4.83;2.57;;;4.30;78.20;;;;;;4864570;28;92269;-74
2020/12/26 01:34:15;;;;;;;6.35;2.95;;;4.30;77.90;;;;;;4865310;28;96399;-74
2020/12/26 01:36:41;;;;;;;6.30;2.60;;;4.30;77.60;;;;;;4873062;28;93819;-74
2020/12/26 01:39:06;;;;;;;6.80;2.70;;;4.30;77.90;;;;;;4865196;28;92294;-75
2020/12/26 01:41:32;;;;;;;5.83;2.03;;;4.30;78.00;;;;;;4865569;28;91864;-75
2020/12/26 01:44:00;;;;;;;5.70;2.70;;;4.30;78.00;;;;;;4864363;28;97214;-75
2020/12/26 01:46:31;;;;;;;7.73;2.67;;;4.30;78.00;;;;;;4882690;28;92906;-75
2020/12/26 01:48:59;;;;;;;5.67;2.40;;;4.30;78.50;;;;;;4882468;28;91882;-74
2020/12/26 01:51:29;;;;;;;5.70;2.40;;;4.30;78.30;;;;;;4883326;28;92095;-75
2020/12/26 01:53:56;;;;;;;5.30;2.37;;;4.30;78.20;;;;;;4865142;28;93650;-75
2020/12/26 01:56:23;;;;;;;6.70;2.63;;;4.30;78.40;;;;;;4897604;28;96746;-75
2020/12/26 01:58:48;;;;;;;4.20;2.47;;;4.30;78.50;;;;;;4865840;28;92192;-75
2020/12/26 02:01:14;;;;;;;5.50;3.00;;;4.30;78.70;;;;;;4867336;28;92676;-75
2020/12/26 02:03:40;;;;;;;6.10;2.50;;;4.20;78.70;;;;;;4867936;28;96167;-74
2020/12/26 02:06:07;;;;;;;5.37;2.50;;;4.20;78.60;;;;;;4871682;28;95941;-76
2020/12/26 02:08:35;;;;;;;5.30;2.57;;;4.20;78.70;;;;;;4871758;28;92449;-75
2020/12/26 02:11:04;;;;;;;3.43;2.27;;;4.30;78.70;;;;;;4863953;28;91404;-75
2020/12/26 02:13:29;;;;;;;6.63;3.00;;;4.30;79.10;;;;;;4881962;28;93343;-75
2020/12/26 02:16:04;;;;;;;7.47;3.10;;;4.30;79.10;;;;;;4864040;28;92618;-75
2020/12/26 02:18:31;;;;;;;7.80;2.87;;;4.20;79.00;;;;;;4881252;28;93245;-75
2020/12/26 02:20:57;;;;;;;7.10;3.90;;;4.20;79.30;;;;;;4881462;28;92575;-75
2020/12/26 02:23:26;;;;;;;6.20;3.20;;;4.20;79.30;;;;;;4896389;28;96767;-75
2020/12/26 02:25:54;;;;;;;8.17;3.80;;;4.30;79.20;;;;;;4881671;28;92027;-74
2020/12/26 02:28:20;;;;;;;6.50;3.50;;;4.30;78.90;;;;;;4866042;28;92025;-75
2020/12/26 02:30:46;;;;;;;6.50;3.60;;;4.30;79.00;;;;;;4889316;28;91976;-79
2020/12/26 02:33:12;;;;;;;7.77;4.00;;;4.40;78.70;;;;;;4887029;28;92991;-76
2020/12/26 02:35:38;;;;;;;8.80;4.00;;;4.40;78.50;;;;;;4881385;28;92562;-74
2020/12/26 02:38:04;;;;;;;8.53;5.33;;;4.40;78.30;;;;;;4881637;28;91811;-74
2020/12/26 02:40:30;;;;;;;7.70;4.20;;;4.40;78.30;;;;;;4881373;28;92109;-75
2020/12/26 02:42:56;;;;;;;8.63;3.33;;;4.40;78.30;;;;;;4880270;28;94087;-75
2020/12/26 02:45:22;;;;;;;7.47;3.73;;;4.40;78.40;;;;;;4895288;28;97286;-75
2020/12/26 02:47:47;;;;;;;5.20;3.90;;;4.40;78.50;;;;;;4863785;28;91884;-76
2020/12/26 02:50:13;;;;;;;7.10;4.07;;;4.40;78.70;;;;;;4881614;28;92073;-74
2020/12/26 02:52:39;;;;;;;6.47;4.40;;;4.40;78.80;;;;;;4880822;28;92752;-74
2020/12/26 02:55:05;;;;;;;7.57;4.53;;;4.40;78.70;;;;;;4863922;28;96031;-75
2020/12/26 02:57:31;;;;;;;6.67;4.37;;;4.40;78.80;;;;;;4848538;28;91996;-75
2020/12/26 02:59:56;;;;;;;6.03;4.50;;;4.40;78.60;;;;;;4881175;28;91357;-75
2020/12/26 03:02:22;;;;;;;7.47;4.13;;;4.40;78.60;;;;;;4895783;28;96887;-75
2020/12/26 03:04:48;;;;;;;7.80;4.87;;;4.40;78.70;;;;;;4894969;28;93201;-75
2020/12/26 03:07:14;;;;;;;7.73;5.07;;;4.40;78.60;;;;;;4881149;28;92849;-75
2020/12/26 03:09:40;;;;;;;4.87;4.10;;;4.40;78.70;;;;;;4864120;28;92900;-75
2020/12/26 03:12:05;;;;;;;6.97;4.03;;;4.40;78.90;;;;;;4863332;28;96877;-75
2020/12/26 03:14:31;;;;;;;7.53;4.40;;;4.40;79.00;;;;;;4863988;28;92908;-74
2020/12/26 03:16:57;;;;;;;6.07;4.07;;;4.50;78.90;;;;;;4864091;28;92513;-75
2020/12/26 03:19:23;;;;;;;6.37;4.50;;;4.50;78.70;;;;;;4863329;28;92515;-75
2020/12/26 03:21:48;;;;;;;7.87;4.50;;;4.40;78.70;;;;;;4863710;28;93235;-74
2020/12/26 03:24:14;;;;;;;6.53;3.97;;;4.40;78.80;;;;;;4867278;28;96282;-75
2020/12/26 03:26:40;;;;;;;7.33;4.27;;;4.30;79.10;;;;;;4884777;28;92397;-75
2020/12/26 03:29:06;;;;;;;10.00;4.30;;;4.30;79.60;;;;;;4883505;28;91964;-74
2020/12/26 03:31:31;;;;;;;6.63;4.03;;;4.30;79.50;;;;;;4883152;28;93629;-75
2020/12/26 03:33:57;;;;;;;8.83;4.27;;;4.40;79.50;;;;;;4865935;28;93281;-74
2020/12/26 03:36:23;;;;;;;4.93;3.60;;;4.30;79.40;;;;;;4884404;28;91971;-75
2020/12/26 03:38:49;;;;;;;6.07;3.80;;;4.40;79.40;;;;;;4897973;28;92167;-74
2020/12/26 03:41:15;;;;;;;5.33;3.67;;;4.30;79.50;;;;;;4883622;28;94864;-74
2020/12/26 03:43:41;;;;;;;9.13;4.03;;;4.30;79.30;;;;;;4882500;28;96060;-75
2020/12/26 03:46:07;;;;;;;6.53;3.17;;;4.40;79.30;;;;;;4883029;28;91857;-74
2020/12/26 03:48:33;;;;;;;11.63;3.57;;;4.30;79.00;;;;;;4867125;28;91505;-74
2020/12/26 03:50:58;;;;;;;6.60;3.17;;;4.20;79.40;;;;;;4882957;28;93181;-74
2020/12/26 03:53:24;;;;;;;5.83;3.70;;;4.20;79.40;;;;;;4867021;28;92366;-74
2020/12/26 03:55:50;;;;;;;6.80;4.10;;;4.20;79.50;;;;;;4897472;28;92915;-74
2020/12/26 03:58:16;;;;;;;7.03;3.43;;;4.30;79.20;;;;;;4866147;28;92154;-75
2020/12/26 04:00:41;;;;;;;6.33;3.87;;;4.20;79.00;;;;;;4866334;28;96219;-75
2020/12/26 04:03:07;;;;;;;6.13;3.40;;;4.20;79.00;;;;;;4865613;28;95731;-74
2020/12/26 04:05:33;;;;;;;8.00;3.93;;;4.30;78.80;;;;;;4884195;28;91878;-75
2020/12/26 04:07:59;;;;;;;7.53;3.60;;;4.30;78.70;;;;;;4866146;28;92170;-74
2020/12/26 04:10:24;;;;;;;9.60;4.07;;;4.20;78.70;;;;;;4882693;28;93249;-75
2020/12/26 04:12:50;;;;;;;8.57;3.20;;;4.20;78.90;;;;;;4883187;28;92375;-74
2020/12/26 04:15:16;;;;;;;9.17;3.97;;;4.20;78.80;;;;;;4883485;28;92022;-75
2020/12/26 04:17:42;;;;;;;4.80;3.27;;;4.20;78.80;;;;;;4883414;28;92109;-75
2020/12/26 04:20:07;;;;;;;6.27;3.53;;;4.20;78.90;;;;;;4864801;28;97980;-75
2020/12/26 04:22:33;;;;;;;8.57;3.90;;;4.20;78.60;;;;;;4866688;28;93234;-75
2020/12/26 04:24:59;;;;;;;7.63;3.50;;;4.20;78.60;;;;;;4882620;28;92191;-75
2020/12/26 04:27:25;;;;;;;4.53;3.10;;;4.20;79.00;;;;;;4866961;28;92107;-75
2020/12/26 04:29:51;;;;;;;6.80;3.67;;;4.10;78.60;;;;;;4865197;28;96560;-74
2020/12/26 04:32:16;;;;;;;5.70;3.40;;;4.00;78.90;;;;;;4865483;28;95909;-74
2020/12/26 04:34:45;;;;;;;6.00;3.60;;;4.10;79.10;;;;;;4897437;28;92635;-75
2020/12/26 04:37:11;;;;;;;7.97;3.67;;;4.10;79.00;;;;;;4883462;28;91256;-74
2020/12/26 04:39:37;;;;;;;9.97;3.47;;;4.10;78.80;;;;;;4866700;28;94291;-74
2020/12/26 04:42:04;;;;;;;11.87;3.63;;;4.10;78.20;;;;;;4882707;28;92971;-74
2020/12/26 04:44:30;;;;;;;7.97;3.20;;;4.10;78.00;;;;;;4883330;28;92921;-75
2020/12/26 04:46:59;;;;;;;10.20;3.70;;;4.10;77.50;;;;;;4884459;28;92119;-75
2020/12/26 04:49:29;;;;;;;10.47;3.30;;;4.00;77.40;;;;;;4887789;28;92896;-76
2020/12/26 04:51:58;;;;;;;9.33;3.60;;;4.00;77.90;;;;;;4867304;28;92074;-74
2020/12/26 04:54:25;;;;;;;8.87;4.03;;;4.00;77.70;;;;;;4866296;28;92470;-75
2020/12/26 04:56:55;;;;;;;4.30;3.10;;;4.00;77.10;;;;;;4865511;28;92248;-74
2020/12/26 04:59:23;;;;;;;5.67;3.23;;;3.90;77.10;;;;;;4865083;28;95475;-76
2020/12/26 05:01:50;;;;;;;8.37;3.00;;;4.00;76.90;;;;;;4850129;28;96201;-74
2020/12/26 05:04:16;;;;;;;5.53;3.20;;;4.00;76.30;;;;;;4865901;28;91890;-74
2020/12/26 05:06:50;;;;;;;5.47;2.90;;;4.00;76.00;;;;;;4866167;28;92111;-75
2020/12/26 05:09:17;;;;;;;6.33;3.10;;;4.00;76.00;;;;;;4864911;28;94602;-75
2020/12/26 05:11:56;;;;;;;7.30;2.97;;;3.90;75.20;;;;;;4882725;28;93265;-75
2020/12/26 05:14:24;;;;;;;6.57;3.40;;;4.00;74.70;;;;;;4865877;28;92067;-75
2020/12/26 05:16:51;;;;;;;9.43;3.20;;;4.00;74.30;;;;;;4865875;28;92429;-74
2020/12/26 05:19:17;;;;;;;9.13;4.00;;;3.90;73.60;;;;;;4865881;28;93694;-74
2020/12/26 05:21:46;;;;;;;7.07;3.30;;;3.90;73.70;;;;;;4866283;28;96788;-75
2020/12/26 05:24:12;;;;;;;6.33;3.10;;;3.90;73.70;;;;;;4883399;28;91980;-74
2020/12/26 05:26:39;;;;;;;7.07;3.23;;;3.90;73.80;;;;;;4867621;28;91363;-75
2020/12/26 05:29:06;;;;;;;5.50;3.13;;;3.90;73.70;;;;;;4899020;28;96653;-77
2020/12/26 05:31:53;;;;;;;6.97;2.70;;;3.90;73.80;;;;;;4888176;28;93445;-76
2020/12/26 05:34:20;;;;;;;6.13;3.30;;;3.80;74.00;;;;;;4868759;28;92944;-76
2020/12/26 05:36:46;;;;;;;5.37;3.30;;;3.90;73.80;;;;;;4882760;28;92106;-75
2020/12/26 05:39:12;;;;;;;7.37;3.90;;;3.90;73.50;;;;;;4864185;28;95680;-74
2020/12/26 05:41:44;;;;;;;4.80;3.00;;;3.90;73.10;;;;;;4864986;28;96166;-75
2020/12/26 05:44:12;;;;;;;7.57;3.70;;;3.80;73.20;;;;;;4864931;28;92517;-74
2020/12/26 05:46:52;;;;;;;7.23;2.70;;;3.80;73.10;;;;;;4865106;28;92157;-75
2020/12/26 05:49:31;;;;;;;6.40;2.77;;;3.80;73.10;;;;;;4881317;28;92573;-75
2020/12/26 05:52:03;;;;;;;4.80;3.00;;;3.80;72.40;;;;;;4865022;28;92366;-74
2020/12/26 05:54:30;;;;;;;7.13;2.67;;;3.80;72.50;;;;;;4865374;28;92618;-75
2020/12/26 05:57:07;;;;;;;7.00;3.07;;;3.80;72.60;;;;;;4864590;28;92662;-74
2020/12/26 05:59:33;;;;;;;7.00;3.10;;;3.90;72.70;;;;;;4864291;28;94715;-75
2020/12/26 06:02:28;;;;;;;6.37;3.10;;;3.80;72.30;;;;;;4863911;28;97372;-74
2020/12/26 06:04:55;;;;;;;5.47;2.83;;;3.90;72.40;;;;;;4865208;28;91983;-74
2020/12/26 06:07:32;;;;;;;6.93;3.10;;;3.90;72.00;;;;;;4882161;28;92104;-74
2020/12/26 06:10:01;;;;;;;5.27;2.53;;;3.90;72.30;;;;;;4864498;28;93341;-74
2020/12/26 06:12:29;;;;;;;5.43;2.90;;;3.90;72.20;;;;;;4882031;28;93433;-74
2020/12/26 06:14:55;;;;;;;7.23;2.90;;;3.90;72.40;;;;;;4864998;28;91979;-74
2020/12/26 06:17:26;;;;;;;5.93;3.23;;;3.80;72.40;;;;;;4865317;28;91153;-74
2020/12/26 06:19:56;;;;;;;6.37;3.10;;;3.90;72.00;;;;;;4864971;28;94579;-75
2020/12/26 06:22:22;;;;;;;5.00;2.60;;;3.90;72.40;;;;;;4881878;28;92878;-74
2020/12/26 06:24:49;;;;;;;4.87;2.97;;;3.90;72.30;;;;;;4865358;28;93298;-76
2020/12/26 06:27:15;;;;;;;3.97;2.27;;;3.90;71.50;;;;;;4880452;28;92884;-74
2020/12/26 06:29:44;;;;;;;5.93;1.87;;;3.90;70.90;;;;;;4865578;28;93729;-74
2020/12/26 06:32:14;;;;;;;5.03;2.67;;;3.90;70.90;;;;;;4864074;28;96100;-74
2020/12/26 06:34:44;;;;;;;5.60;2.73;;;3.90;71.00;;;;;;4850213;28;92103;-75
2020/12/26 06:37:14;;;;;;;8.93;2.57;;;3.90;70.80;;;;;;4897109;28;92250;-74
2020/12/26 06:39:40;;;;;;;7.87;2.87;;;3.80;71.10;;;;;;4896390;28;93830;-74
2020/12/26 06:42:39;;;;;;;7.73;2.93;;;3.80;71.40;;;;;;4866834;28;95531;-75
2020/12/26 06:45:09;;;;;;;4.70;2.60;;;3.70;70.70;;;;;;4866194;28;91829;-76
2020/12/26 06:47:38;;;;;;;9.03;3.03;;;3.80;71.80;;;;;;4868582;28;92120;-76
2020/12/26 06:50:24;;;;;;;7.30;2.67;;;3.80;70.50;;;;;;4865301;28;96957;-75
2020/12/26 06:52:51;;;;;;;6.50;2.97;;;3.80;70.20;;;;;;4898693;28;97058;-76
2020/12/26 06:55:40;;;;;;;7.53;3.10;;;3.80;70.40;;;;;;4865375;28;92060;-74
2020/12/26 06:58:31;;;;;;;6.23;3.30;;;3.80;69.90;;;;;;4897795;28;92055;-74
2020/12/26 07:00:57;;;;;;;7.28;2.78;;;3.70;70.40;;;;;;4883673;28;96554;-75
2020/12/26 07:03:31;;;;;;;6.73;2.90;;;3.80;70.00;;;;;;4867884;28;96597;-75
2020/12/26 07:05:58;;;;;;;8.00;2.87;;;3.70;70.10;;;;;;4870403;28;92763;-75
2020/12/26 07:08:28;;;;;;;4.60;2.37;;;3.60;70.30;;;;;;4873768;28;91180;-76
2020/12/26 07:10:56;;;;;;;4.13;2.13;;;3.60;70.30;;;;;;4883075;28;95438;-75
2020/12/26 07:13:42;;;;;;;7.93;3.00;;;3.70;70.50;;;;;;4883730;28;92949;-75
2020/12/26 07:16:37;;;;;;;5.03;2.67;;;3.80;70.10;;;;;;4897401;28;92737;-75
2020/12/26 07:19:22;;;;;;;8.90;2.57;;;3.80;69.20;;;;;;4880895;28;92600;-74
2020/12/26 07:22:00;;;;;;;7.40;2.87;;;3.80;69.10;;;;;;4882708;28;96679;-75
2020/12/26 07:24:29;;;;;;;6.07;2.30;;;3.80;69.00;;;;;;4898245;28;95243;-75
2020/12/26 07:27:10;;;;;;;4.20;2.00;;;3.80;69.30;;;;;;4883481;28;92647;-74
2020/12/26 07:29:50;;;;;;;6.67;2.27;;;3.80;68.90;;;;;;4882526;28;92063;-75
2020/12/26 07:32:35;;;;;;;3.50;2.10;;;3.80;69.00;;;;;;4865863;28;93122;-74
2020/12/26 07:35:04;;;;;;;7.27;2.53;;;3.80;68.20;;;;;;4884357;28;92647;-74
2020/12/26 07:37:29;;;;;;;11.57;2.60;;;3.70;68.10;;;;;;4867413;28;92027;-74
2020/12/26 07:39:55;;;;;;;5.83;1.93;;;3.70;68.70;;;;;;4884399;28;92202;-74
2020/12/26 07:42:22;;;;;;;6.57;1.90;;;3.80;67.90;;;;;;4881391;28;97694;-74
2020/12/26 07:44:49;;;;;;;6.40;2.73;;;3.80;68.20;;;;;;4867199;28;93761;-75
2020/12/26 07:47:15;;;;;;;6.27;2.50;;;3.80;67.80;;;;;;4866596;28;91895;-74
2020/12/26 07:49:41;;;;;;;6.00;2.90;;;3.90;67.60;;;;;;4866822;28;92547;-74
2020/12/26 07:52:09;;;;;;;5.90;2.77;;;3.90;67.40;;;;;;4865752;28;92689;-74
2020/12/26 07:54:35;;;;;;;8.50;2.90;;;3.90;67.50;;;;;;4883743;28;92462;-75
2020/12/26 07:57:02;;;;;;;7.37;2.63;;;3.90;67.00;;;;;;4883719;28;92028;-75
2020/12/26 07:59:27;;;;;;;6.50;3.03;;;3.90;67.20;;;;;;4898309;28;91366;-74
2020/12/26 08:01:55;;;;;;;10.37;4.13;;;3.90;66.80;;;;;;4883705;28;93149;-74
2020/12/26 08:04:21;;;;;;;5.50;2.40;;;3.90;66.70;;;;;;4883012;28;91913;-74
2020/12/26 08:06:49;;;;;;;5.83;1.73;;;3.90;66.20;;;;;;4882103;28;92775;-75
2020/12/26 08:09:16;;;;;;;6.90;2.87;;;3.90;66.00;;;;;;4864672;28;92124;-74
2020/12/26 08:11:43;;;;;;;5.00;2.40;;;3.90;65.60;;;;;;4882142;28;96383;-74
2020/12/26 08:14:10;;;;;;;6.10;2.17;;;3.90;65.80;;;;;;4865595;28;92885;-74
2020/12/26 08:16:37;;;;;;;2.93;1.20;;;3.90;65.60;;;;;;4883855;28;91991;-75
2020/12/26 08:19:04;;;;;;;7.33;1.90;;;3.80;66.00;;;;;;4866103;28;92222;-75
2020/12/26 08:21:31;;;;;;;4.83;2.20;;;3.80;66.40;;;;;;4865085;28;97218;-74
2020/12/26 08:24:04;;;;;;;3.33;1.83;;;3.90;66.10;;;;;;4882328;28;95727;-75
2020/12/26 08:26:31;;;;;;;7.37;2.10;;;3.90;65.80;;;;;;4881843;28;92285;-74
2020/12/26 08:29:04;;;;;;;5.23;1.70;;;4.00;65.50;;;;;;4883559;28;92103;-75
2020/12/26 08:31:31;;;;;;;6.13;1.53;;;3.90;65.60;;;;;;4865213;28;94337;-75
2020/12/26 08:34:02;;;;;;;5.73;2.10;;;3.90;65.50;;;;;;4865869;28;97442;-75
2020/12/26 08:36:35;;;;;;;5.90;1.80;;;4.00;64.70;;;;;;4881491;28;91903;-74
2020/12/26 08:39:02;;;;;;;7.73;3.17;;;4.00;65.00;;;;;;4866706;28;92084;-75
2020/12/26 08:41:31;;;;;;;5.13;2.43;;;4.10;64.60;;;;;;4881166;28;96295;-74
2020/12/26 08:43:57;;;;;;;4.33;2.03;;;4.10;65.00;;;;;;4882379;28;97011;-75
2020/12/26 08:46:25;;;;;;;5.50;2.30;;;4.10;64.20;;;;;;4881846;28;92477;-74
2020/12/26 08:48:52;;;;;;;4.60;2.07;;;4.10;64.20;;;;;;4867350;28;91270;-74
2020/12/26 08:51:19;;;;;;;8.73;2.03;;;4.20;63.70;;;;;;4866354;28;93247;-74
2020/12/26 08:53:46;;;;;;;6.80;2.80;;;4.30;63.40;;;;;;4867610;28;96137;-75
2020/12/26 08:56:12;;;;;;;5.37;2.50;;;4.30;62.90;;;;;;4883011;28;92897;-75
2020/12/26 08:58:38;;;;;;;7.03;3.23;;;4.30;63.30;;;;;;4883571;28;92262;-75
2020/12/26 09:01:05;;;;;;;8.10;3.33;;;4.40;63.60;;;;;;4881749;28;93227;-75
2020/12/26 09:03:35;;;;;;;6.40;2.57;;;4.40;63.50;;;;;;4881978;28;92958;-75
2020/12/26 09:06:03;;;;;;;9.87;3.10;;;4.40;62.70;;;;;;4866184;28;91976;-74
2020/12/26 09:08:33;;;;;;;8.90;2.60;;;4.40;62.60;;;;;;4882270;28;92551;-75
2020/12/26 09:11:04;;;;;;;7.23;2.80;;;4.40;62.40;;;;;;4881425;28;96692;-75
2020/12/26 09:13:35;;;;;;;6.50;2.63;;;4.40;62.80;;;;;;4881498;28;92338;-74
2020/12/26 09:16:12;;;;;;;8.43;3.00;;;4.40;62.80;;;;;;4882244;28;92132;-75
2020/12/26 09:18:46;;;;;;;9.57;2.83;;;4.40;62.00;;;;;;4882684;28;92059;-75
2020/12/26 09:21:26;;;;;;;9.23;3.00;;;4.30;62.20;;;;;;4882247;28;94171;-74
2020/12/26 09:23:56;;;;;;;9.57;3.20;;;4.40;62.20;;;;;;4884832;28;93928;-74
2020/12/26 09:26:27;;;;;;;8.53;3.30;;;4.40;62.40;;;;;;4887008;28;92346;-75
2020/12/26 09:28:58;;;;;;;14.03;4.50;;;4.50;62.40;;;;;;4882440;28;92549;-75
2020/12/26 09:31:30;;;;;;;8.10;2.80;;;4.50;62.30;;;;;;4880192;28;93362;-75
2020/12/26 09:33:57;;;;;;;;;;;4.50;62.10;;;;;;4897137;28;96415;-75
2020/12/26 09:36:25;;;;;;;14.17;6.70;;;4.50;61.80;;;;;;4866020;28;91996;-74
2020/12/26 09:38:52;;;;;;;14.03;6.83;;;4.50;61.70;;;;;;4866155;28;91581;-74
2020/12/26 09:41:20;;;;;;;13.67;5.83;;;4.50;61.40;;;;;;4864640;28;92670;-74
2020/12/26 09:43:49;;;;;;;10.80;4.77;;;4.50;61.20;;;;;;4880788;28;96441;-75
2020/12/26 09:46:15;;;;;;;11.90;4.07;;;4.50;61.60;;;;;;4880655;28;92837;-74
2020/12/26 09:48:41;;;;;;;9.60;3.60;;;4.50;61.60;;;;;;4881087;28;92031;-75
2020/12/26 09:51:21;;;;;;;9.53;4.27;;;4.50;61.30;;;;;;4881662;28;93377;-75
2020/12/26 09:53:48;;;;;;;11.00;4.17;;;4.60;61.60;;;;;;4882280;28;92408;-74
2020/12/26 09:56:14;;;;;;;6.23;2.90;;;4.70;61.40;;;;;;4864520;28;92099;-74
2020/12/26 09:58:42;;;;;;;9.40;4.77;;;4.70;61.60;;;;;;4881958;28;92065;-74
2020/12/26 10:01:15;;;;;;;12.10;6.07;;;4.70;61.10;;;;;;4881125;28;93365;-75
2020/12/26 10:03:42;;;;;;;10.40;4.57;;;4.70;61.00;;;;;;4880935;28;95961;-74
2020/12/26 10:06:18;;;;;;;9.67;3.33;;;4.70;60.50;;;;;;4865465;28;92368;-75
2020/12/26 10:08:47;;;;;;;9.33;3.70;;;4.70;60.40;;;;;;4880557;28;92088;-75
2020/12/26 10:11:15;;;;;;;9.27;4.30;;;4.80;60.60;;;;;;4848220;28;97573;-74
2020/12/26 10:13:42;;;;;;;8.67;3.50;;;4.80;60.70;;;;;;4864464;28;93886;-74
2020/12/26 10:16:08;;;;;;;10.07;3.87;;;4.80;60.60;;;;;;4881057;28;92433;-75
2020/12/26 10:18:34;;;;;;;6.43;3.20;;;4.80;60.70;;;;;;4879792;28;92721;-74
2020/12/26 10:20:59;;;;;;;9.07;4.30;;;4.80;60.30;;;;;;4881331;28;92908;-75
2020/12/26 10:23:27;;;;;;;10.53;4.13;;;4.80;60.10;;;;;;4863496;28;92928;-74
2020/12/26 10:25:53;;;;;;;9.20;4.17;;;4.80;60.60;;;;;;4882052;28;92055;-75
2020/12/26 10:28:19;;;;;;;10.77;3.77;;;4.80;60.90;;;;;;4879902;28;91352;-74
2020/12/26 10:30:48;;;;;;;10.30;4.47;;;4.90;60.70;;;;;;4864457;28;92728;-75
2020/12/26 10:33:14;;;;;;;12.90;5.40;;;4.90;61.40;;;;;;4883521;28;93083;-74
2020/12/26 10:35:40;;;;;;;9.90;3.87;;;4.80;60.80;;;;;;4883196;28;93040;-75
2020/12/26 10:38:06;;;;;;;10.40;3.87;;;4.70;60.90;;;;;;4868319;28;92134;-75
2020/12/26 10:40:32;;;;;;;11.63;6.27;;;4.70;61.30;;;;;;4866899;28;96414;-74
2020/12/26 10:42:58;;;;;;;9.53;5.50;;;4.80;61.70;;;;;;4883556;28;92034;-75
2020/12/26 10:45:24;;;;;;;9.20;4.53;;;4.90;61.30;;;;;;4883348;28;91917;-75
2020/12/26 10:47:50;;;;;;;16.43;8.13;;;4.90;60.50;;;;;;4884801;28;92144;-75
2020/12/26 10:50:16;;;;;;;12.43;7.97;;;4.80;60.80;;;;;;4866688;28;96351;-74
2020/12/26 10:52:43;;;;;;;10.00;4.47;;;4.90;60.90;;;;;;4883136;28;96365;-74
2020/12/26 10:55:13;;;;;;;9.03;3.63;;;4.90;60.50;;;;;;4885200;28;92115;-74
2020/12/26 10:57:38;;;;;;;8.97;3.67;;;4.90;60.20;;;;;;4898598;28;92552;-74
2020/12/26 11:00:04;;;;;;;6.83;3.90;;;5.00;60.80;;;;;;4851241;28;95576;-74
2020/12/26 11:02:31;;;;;;;7.53;4.00;;;5.20;60.90;;;;;;4866820;28;96636;-74
2020/12/26 11:04:57;;;;;;;6.93;3.50;;;5.20;60.50;;;;;;4868130;28;91940;-75
2020/12/26 11:07:23;;;;;;;7.80;3.83;;;5.30;60.20;;;;;;4851061;28;92151;-74
2020/12/26 11:09:48;;;;;;;9.47;4.23;;;5.30;60.10;;;;;;4867407;28;96369;-74
2020/12/26 11:12:14;;;;;;;11.30;4.73;;;5.30;60.20;;;;;;4884515;28;92888;-75
2020/12/26 11:14:40;;;;;;;11.93;4.30;;;5.30;59.70;;;;;;4851275;28;92011;-74
2020/12/26 11:17:06;;;;;;;8.47;3.87;;;5.30;60.00;;;;;;4883977;28;91423;-75
2020/12/26 11:19:31;;;;;;;9.20;4.17;;;5.20;60.00;;;;;;4866747;28;96141;-74
2020/12/26 11:21:58;;;;;;;7.80;3.73;;;5.20;60.20;;;;;;4884683;28;91897;-74
2020/12/26 11:24:24;;;;;;;9.70;4.17;;;5.20;59.80;;;;;;4850716;28;92936;-74
2020/12/26 11:26:50;;;;;;;9.77;3.53;;;5.30;60.00;;;;;;4883304;28;92184;-75
2020/12/26 11:29:16;;;;;;;8.70;3.70;;;5.30;59.60;;;;;;4867392;28;95813;-75
2020/12/26 11:31:42;;;;;;;8.97;4.53;;;5.40;59.60;;;;;;4897786;28;95777;-75
2020/12/26 11:34:10;;;;;;;7.07;3.53;;;5.40;59.60;;;;;;4867723;28;91872;-75
2020/12/26 11:36:36;;;;;;;7.73;3.83;;;5.40;59.80;;;;;;4884141;28;92155;-74
2020/12/26 11:39:02;;;;;;;8.37;3.57;;;5.40;59.40;;;;;;4884452;28;93278;-75
2020/12/26 11:41:28;;;;;;;10.17;4.57;;;5.40;59.50;;;;;;4887084;28;92723;-74
2020/12/26 11:43:56;;;;;;;9.10;3.70;;;5.40;58.90;;;;;;4887942;28;92676;-79
2020/12/26 11:46:23;;;;;;;10.67;4.80;;;5.30;59.30;;;;;;4853775;28;92590;-74
2020/12/26 11:48:49;;;;;;;9.23;5.33;;;5.40;59.70;;;;;;4882228;28;97449;-75
2020/12/26 11:51:15;;;;;;;8.47;4.23;;;5.40;59.90;;;;;;4866913;28;96876;-75
2020/12/26 11:53:41;;;;;;;10.10;3.93;;;5.50;58.70;;;;;;4882045;28;92116;-74
2020/12/26 11:56:15;;;;;;;8.93;4.17;;;5.40;58.40;;;;;;4867211;28;92295;-75
2020/12/26 11:58:42;;;;;;;9.53;4.93;;;5.30;58.90;;;;;;4882018;28;97035;-75
2020/12/26 12:01:09;;;;;;;6.37;3.87;;;5.30;59.00;;;;;;4882350;28;96438;-75
2020/12/26 12:03:36;;;;;;;8.40;3.67;;;5.30;58.20;;;;;;4866221;28;92281;-74
2020/12/26 12:06:03;;;;;;;6.03;3.20;;;5.30;58.70;;;;;;4883481;28;91602;-74
2020/12/26 12:08:29;;;;;;;7.60;3.53;;;5.30;58.70;;;;;;4883438;28;93269;-74
2020/12/26 12:10:55;;;;;;;9.70;3.90;;;5.30;59.00;;;;;;4866985;28;96458;-75
2020/12/26 12:13:20;;;;;;;12.57;6.83;;;5.30;59.20;;;;;;4866831;28;93449;-75
2020/12/26 12:15:47;;;;;;;9.27;3.77;;;5.40;59.00;;;;;;4884315;28;92072;-75
2020/12/26 12:18:13;;;;;;;7.77;3.30;;;5.30;58.40;;;;;;4884739;28;92743;-75
2020/12/26 12:20:39;;;;;;;10.73;4.07;;;5.30;58.30;;;;;;4882392;28;95385;-75
2020/12/26 12:23:05;;;;;;;14.70;6.80;;;5.30;58.50;;;;;;4887168;28;92023;-74
2020/12/26 12:25:31;;;;;;;12.20;5.23;;;5.30;58.60;;;;;;4867402;28;92157;-74
2020/12/26 12:27:57;;;;;;;11.83;4.70;;;5.20;58.80;;;;;;4882203;28;96271;-75
2020/12/26 12:30:24;;;;;;;8.40;4.43;;;5.10;58.90;;;;;;4883173;28;92393;-74
2020/12/26 12:32:50;;;;;;;8.93;4.63;;;5.10;59.20;;;;;;4877890;28;92154;-74
2020/12/26 12:35:17;;;;;;;9.47;4.53;;;5.20;59.30;;;;;;4864471;29;91906;-75
2020/12/26 12:37:50;;;;;;;9.83;4.07;;;5.20;58.90;;;;;;4846000;29;96765;-74
2020/12/26 12:40:17;;;;;;;12.53;6.43;;;5.20;59.10;;;;;;4879047;28;93640;-75
2020/12/26 12:42:43;;;;;;;9.23;4.97;;;5.20;59.40;;;;;;4847294;29;92634;-75
2020/12/26 12:45:09;;;;;;;9.80;4.63;;;5.20;59.30;;;;;;4863736;29;92324;-75
2020/12/26 12:47:35;;;;;;;8.97;4.67;;;5.30;59.00;;;;;;4863662;29;93490;-74
2020/12/26 12:50:01;;;;;;;9.23;3.90;;;5.30;58.80;;;;;;4864179;29;92404;-75
2020/12/26 12:52:27;;;;;;;6.93;3.57;;;5.30;58.40;;;;;;4862654;29;91956;-74
2020/12/26 12:54:53;;;;;;;8.87;3.60;;;5.20;58.70;;;;;;4862602;29;91385;-74
2020/12/26 12:57:18;;;;;;;6.47;2.80;;;5.20;58.40;;;;;;4862271;29;96371;-75
2020/12/26 12:59:44;;;;;;;9.17;3.70;;;5.30;58.70;;;;;;4861415;29;96103;-75